Time;durP1;ratioP1;P1;durP2;ratioP2;P2;SDS_P1;SDS_P2;PMS_P1;PMS_P2;Temp;Humidity;BMP_temperature;BMP_pressure;BME280_temperature;BME280_humidity;BME280_pressure;Samples;Min_cycle;Max_cycle;Signal;HPM_P1;HPM_P2
2023/08/15 00:01:32;;;;;;;6.83;3.87;;;;;;;20.98;81.63;99490.81;5068534;28;20229;-59
2023/08/15 00:03:59;;;;;;;6.17;3.80;;;;;;;20.90;80.86;99488.25;5067516;28;20197;-59
2023/08/15 00:06:26;;;;;;;5.27;3.47;;;;;;;20.88;80.91;99490.19;5068205;28;20643;-58
2023/08/15 00:08:54;;;;;;;4.57;3.40;;;;;;;20.80;80.99;99491.03;5068346;28;20202;-59
2023/08/15 00:11:23;;;;;;;5.90;3.87;;;;;;;20.74;81.89;99483.88;5067563;28;20202;-59
2023/08/15 00:13:50;;;;;;;5.87;3.53;;;;;;;20.70;81.15;99488.59;5068038;28;20198;-58
2023/08/15 00:16:17;;;;;;;5.07;3.20;;;;;;;20.67;81.66;99482.94;5068328;28;20235;-58
2023/08/15 00:18:44;;;;;;;5.30;3.60;;;;;;;20.61;81.19;99484.41;5067633;28;20214;-58
2023/08/15 00:21:11;;;;;;;4.80;3.23;;;;;;;20.60;81.25;99476.81;5067546;28;20675;-58
2023/08/15 00:23:37;;;;;;;4.53;3.20;;;;;;;20.55;81.77;99469.50;5068304;28;20208;-58
2023/08/15 00:26:04;;;;;;;5.00;3.33;;;;;;;20.49;81.98;99470.94;5068168;28;20677;-59
2023/08/15 00:28:32;;;;;;;7.67;3.77;;;;;;;20.46;82.28;99463.47;5067324;28;20223;-59
2023/08/15 00:30:59;;;;;;;5.30;3.57;;;;;;;20.41;81.76;99465.75;5068109;28;20205;-58
2023/08/15 00:33:26;;;;;;;5.70;3.60;;;;;;;20.36;81.76;99460.22;5067898;28;20691;-59
2023/08/15 00:35:53;;;;;;;4.80;3.40;;;;;;;20.30;82.01;99466.06;5067043;28;20236;-59
2023/08/15 00:38:20;;;;;;;4.97;3.50;;;;;;;20.26;82.84;99464.78;5067797;28;20202;-58
2023/08/15 00:40:47;;;;;;;5.23;3.70;;;;;;;20.24;82.57;99471.94;5068010;28;20585;-58
2023/08/15 00:43:17;;;;;;;5.63;3.63;;;;;;;20.20;83.33;99470.66;5067264;28;20276;-58
2023/08/15 00:45:45;;;;;;;5.60;3.50;;;;;;;20.20;83.35;99470.66;5067611;28;20207;-58
2023/08/15 00:48:13;;;;;;;4.70;3.50;;;;;;;20.18;83.49;99473.41;5067789;28;20201;-59
2023/08/15 00:50:43;;;;;;;5.57;3.50;;;;;;;20.14;83.60;99469.50;5067520;28;20206;-59
2023/08/15 00:53:10;;;;;;;5.80;3.70;;;;;;;20.13;83.49;99467.91;5067510;28;20666;-58
2023/08/15 00:55:38;;;;;;;5.67;3.43;;;;;;;20.07;83.46;99458.97;5067598;28;20255;-58
2023/08/15 00:58:05;;;;;;;5.33;3.50;;;;;;;20.04;84.04;99461.91;5067583;28;20233;-58
2023/08/15 01:00:32;;;;;;;5.13;3.70;;;;;;;20.00;84.72;99460.59;5066233;28;20201;-58
2023/08/15 01:03:01;;;;;;;7.43;3.70;;;;;;;19.94;84.69;99460.44;5066933;28;20204;-58
2023/08/15 01:05:30;;;;;;;5.23;3.90;;;;;;;19.89;84.64;99453.13;5066889;28;20201;-59
2023/08/15 01:07:57;;;;;;;6.37;3.70;;;;;;;19.87;85.13;99460.28;5067443;28;20200;-59
2023/08/15 01:10:24;;;;;;;5.07;3.97;;;;;;;19.84;85.19;99455.41;5069192;28;20208;-58
2023/08/15 01:12:59;;;;;;;6.53;3.60;;;;;;;19.77;85.57;99459.59;5070980;28;20208;-58
2023/08/15 01:15:29;;;;;;;4.53;3.40;;;;;;;19.71;85.98;99449.88;5071361;28;20212;-58
2023/08/15 01:18:05;;;;;;;6.67;3.90;;;;;;;19.67;85.72;99444.19;5071490;28;20599;-58
2023/08/15 01:20:36;;;;;;;5.87;3.80;;;;;;;19.63;84.75;99446.28;5071076;28;20211;-58
2023/08/15 01:23:06;;;;;;;5.23;3.63;;;;;;;19.57;85.01;99441.69;5071597;28;20200;-59
2023/08/15 01:25:39;;;;;;;5.90;4.00;;;;;;;19.49;84.51;99452.09;5071651;28;20193;-59
2023/08/15 01:28:07;;;;;;;6.17;3.87;;;;;;;19.45;84.72;99455.94;5070634;28;20228;-59
2023/08/15 01:30:34;;;;;;;5.80;3.50;;;;;;;19.42;84.43;99471.81;5071620;28;20206;-58
2023/08/15 01:33:07;;;;;;;7.27;4.23;;;;;;;19.42;83.61;99471.81;5071438;28;20209;-59
2023/08/15 01:35:37;;;;;;;7.40;4.10;;;;;;;19.41;83.78;99480.59;5070487;28;20453;-59
2023/08/15 01:38:11;;;;;;;5.67;3.70;;;;;;;19.34;83.52;99467.41;5070978;28;20204;-58
2023/08/15 01:40:41;;;;;;;7.53;4.13;;;;;;;19.41;83.93;99462.44;5071403;28;20196;-59
2023/08/15 01:43:11;;;;;;;9.90;4.03;;;;;;;19.45;83.60;99451.56;5070685;28;20227;-59
2023/08/15 01:45:38;;;;;;;6.77;4.07;;;;;;;19.41;83.96;99446.88;5070554;28;20265;-59
2023/08/15 01:48:05;;;;;;;5.87;3.90;;;;;;;19.41;84.26;99444.28;5071115;28;20211;-58
2023/08/15 01:50:32;;;;;;;6.10;3.97;;;;;;;19.39;84.66;99435.84;5070876;28;20209;-58
2023/08/15 01:52:59;;;;;;;8.27;4.10;;;;;;;19.35;84.05;99427.56;5070328;28;20515;-59
2023/08/15 01:55:26;;;;;;;6.50;3.93;;;;;;;19.35;84.03;99460.47;5070904;28;20196;-59
2023/08/15 01:57:54;;;;;;;5.47;3.97;;;;;;;19.36;84.25;99447.34;5070727;28;20233;-59
2023/08/15 02:00:21;;;;;;;7.27;4.30;;;;;;;19.41;83.58;99419.16;5070028;28;20657;-59
2023/08/15 02:02:48;;;;;;;6.03;3.93;;;;;;;19.44;85.72;99423.22;5070561;28;20200;-58
2023/08/15 02:05:15;;;;;;;5.57;3.90;;;;;;;19.40;88.30;99419.31;5070458;28;20203;-58
2023/08/15 02:07:41;;;;;;;5.67;4.17;;;;;;;19.43;92.10;99416.38;5070479;28;20203;-58
2023/08/15 02:10:09;;;;;;;7.87;4.70;;;;;;;19.37;91.03;99407.50;5069760;28;20209;-58
2023/08/15 02:12:36;;;;;;;7.90;4.60;;;;;;;19.35;92.56;99419.00;5070188;28;20847;-58
2023/08/15 02:15:06;;;;;;;6.40;4.23;;;;;;;19.33;92.78;99418.34;5070606;28;20626;-59
2023/08/15 02:17:32;;;;;;;6.47;4.07;;;;;;;19.29;93.16;99419.63;5069901;28;20227;-58
2023/08/15 02:19:59;;;;;;;6.37;4.10;;;;;;;19.30;93.60;99411.69;5070036;28;20217;-58
2023/08/15 02:22:26;;;;;;;11.70;4.37;;;;;;;19.23;92.14;99415.88;5069005;28;20707;-58
2023/08/15 02:24:53;;;;;;;6.83;4.60;;;;;;;19.20;91.86;99426.56;5070051;28;20199;-58
2023/08/15 02:27:20;;;;;;;9.33;4.57;;;;;;;19.20;92.06;99432.56;5069647;28;20210;-58
2023/08/15 02:29:47;;;;;;;6.50;4.33;;;;;;;19.23;91.51;99432.25;5070448;28;20210;-58
2023/08/15 02:32:15;;;;;;;6.23;3.90;;;;;;;19.24;90.53;99427.88;5070170;28;20202;-58
2023/08/15 02:34:41;;;;;;;6.17;4.10;;;;;;;19.25;90.04;99429.47;5069254;28;20203;-58
2023/08/15 02:37:08;;;;;;;6.27;3.83;;;;;;;19.21;90.43;99423.00;5069922;28;20231;-58
2023/08/15 02:39:35;;;;;;;6.83;4.07;;;;;;;19.21;89.90;99429.00;5070239;28;20214;-58
2023/08/15 02:42:02;;;;;;;8.60;4.43;;;;;;;19.21;89.21;99423.00;5069433;28;20212;-58
2023/08/15 02:44:30;;;;;;;7.47;4.37;;;;;;;19.19;89.74;99425.75;5069620;28;20681;-59
2023/08/15 02:46:56;;;;;;;6.73;4.40;;;;;;;19.19;88.13;99420.56;5069728;28;20210;-58
2023/08/15 02:49:25;;;;;;;7.37;4.63;;;;;;;19.15;88.44;99434.81;5069834;28;20229;-58
2023/08/15 02:51:51;;;;;;;7.57;4.17;;;;;;;19.09;88.94;99445.81;5069605;28;20204;-58
2023/08/15 02:54:18;;;;;;;6.83;4.17;;;;;;;19.05;89.30;99449.66;5069847;28;20607;-58
2023/08/15 02:56:45;;;;;;;6.57;4.17;;;;;;;19.09;88.88;99451.00;5069391;28;20241;-59
2023/08/15 02:59:12;;;;;;;9.93;4.17;;;;;;;19.16;88.11;99451.16;5068895;28;20231;-58
2023/08/15 03:01:39;;;;;;;8.30;4.57;;;;;;;19.17;88.47;99450.22;5069705;28;20204;-58
2023/08/15 03:04:07;;;;;;;8.57;4.33;;;;;;;19.20;88.89;99448.13;5069636;28;20199;-58
2023/08/15 03:06:35;;;;;;;5.90;4.13;;;;;;;19.19;88.79;99456.03;5068845;28;20692;-58
2023/08/15 03:09:02;;;;;;;6.53;4.50;;;;;;;19.21;88.87;99459.28;5069324;28;20690;-58
2023/08/15 03:11:30;;;;;;;7.47;5.00;;;;;;;19.21;89.26;99454.13;5069802;28;20207;-58
2023/08/15 03:13:58;;;;;;;6.47;4.43;;;;;;;19.21;89.27;99454.13;5069157;28;20213;-58
2023/08/15 03:16:25;;;;;;;8.03;4.50;;;;;;;19.21;89.31;99464.47;5068909;28;20313;-58
2023/08/15 03:18:51;;;;;;;6.50;4.60;;;;;;;19.17;89.63;99456.22;5069519;28;20218;-58
2023/08/15 03:21:18;;;;;;;6.47;4.33;;;;;;;19.20;89.47;99447.31;5069244;28;20208;-58
2023/08/15 03:23:47;;;;;;;6.87;4.40;;;;;;;19.18;89.74;99444.88;5068397;28;20199;-58
2023/08/15 03:26:13;;;;;;;7.30;4.10;;;;;;;19.18;90.06;99439.69;5069185;28;20821;-58
2023/08/15 03:28:40;;;;;;;7.47;4.67;;;;;;;19.16;89.87;99446.78;5068964;28;20191;-58
2023/08/15 03:31:08;;;;;;;7.57;4.30;;;;;;;19.16;90.62;99446.78;5068125;28;20207;-59
2023/08/15 03:33:35;;;;;;;6.03;3.90;;;;;;;19.17;90.32;99448.44;5068738;28;20199;-58
2023/08/15 03:36:03;;;;;;;7.07;4.07;;;;;;;19.16;90.96;99462.34;5069003;28;20688;-58
2023/08/15 03:38:29;;;;;;;6.93;4.87;;;;;;;19.15;90.92;99460.72;5068094;28;20203;-58
2023/08/15 03:41:04;;;;;;;5.97;4.00;;;;;;;19.17;90.72;99469.19;5068549;28;20211;-58
2023/08/15 03:43:32;;;;;;;7.10;4.00;;;;;;;19.17;90.89;99476.94;5068886;28;20231;-58
2023/08/15 03:45:59;;;;;;;7.57;4.70;;;;;;;19.14;91.65;99479.03;5068367;28;20685;-58
2023/08/15 03:48:26;;;;;;;6.47;3.90;;;;;;;19.15;89.68;99484.06;5067981;28;20570;-58
2023/08/15 03:50:55;;;;;;;7.07;4.50;;;;;;;19.10;89.62;99483.72;5068896;28;20199;-58
2023/08/15 03:53:22;;;;;;;7.03;4.37;;;;;;;19.10;89.73;99483.72;5068780;28;20209;-58
2023/08/15 03:55:50;;;;;;;5.67;4.20;;;;;;;19.11;89.99;99480.16;5067777;28;20679;-59
2023/08/15 03:58:18;;;;;;;8.60;4.47;;;;;;;19.11;90.03;99468.97;5068153;28;20297;-58
2023/08/15 04:00:45;;;;;;;7.17;4.50;;;;;;;19.20;91.21;99463.69;5068659;28;20199;-58
2023/08/15 04:03:13;;;;;;;6.67;4.60;;;;;;;19.27;91.86;99457.84;5067556;28;20585;-58
2023/08/15 04:05:40;;;;;;;11.97;4.40;;;;;;;19.27;92.05;99456.06;5068077;28;20212;-58
2023/08/15 04:08:07;;;;;;;6.50;4.00;;;;;;;19.28;93.25;99459.47;5068452;28;20202;-58
2023/08/15 04:10:39;;;;;;;6.93;4.30;;;;;;;19.28;92.98;99459.47;5067839;28;20735;-59
2023/08/15 04:13:06;;;;;;;6.30;4.20;;;;;;;19.27;93.25;99463.03;5067899;28;20588;-58
2023/08/15 04:15:35;;;;;;;6.37;4.40;;;;;;;19.30;93.56;99470.50;5068318;28;20200;-59
2023/08/15 04:18:02;;;;;;;6.13;4.20;;;;;;;19.24;93.33;99469.34;5067829;28;20374;-59
2023/08/15 04:20:29;;;;;;;6.27;4.30;;;;;;;19.32;92.86;99469.38;5067629;28;20205;-58
2023/08/15 04:22:56;;;;;;;5.77;4.07;;;;;;;19.34;93.07;99480.38;5068559;28;20206;-59
2023/08/15 04:25:23;;;;;;;8.40;4.47;;;;;;;19.35;92.91;99476.03;5067942;28;20203;-59
2023/08/15 04:27:50;;;;;;;9.07;4.40;;;;;;;19.36;92.64;99472.47;5067301;28;20216;-59
2023/08/15 04:30:18;;;;;;;8.07;3.87;;;;;;;19.33;93.31;99475.38;5067865;28;20206;-59
2023/08/15 04:32:47;;;;;;;6.20;4.17;;;;;;;19.33;93.54;99480.56;5068079;28;20249;-59
2023/08/15 04:35:14;;;;;;;6.50;4.03;;;;;;;19.34;93.40;99484.75;5067245;28;20780;-58
2023/08/15 04:37:41;;;;;;;9.20;4.43;;;;;;;19.30;93.95;99486.06;5067376;28;20601;-59
2023/08/15 04:40:13;;;;;;;6.07;4.10;;;;;;;19.32;94.77;99487.53;5067780;28;20234;-59
2023/08/15 04:42:40;;;;;;;7.83;4.37;;;;;;;19.32;94.47;99497.09;5067451;28;20205;-58
2023/08/15 04:45:08;;;;;;;6.53;4.40;;;;;;;19.33;94.83;99499.50;5066496;28;20199;-59
2023/08/15 04:47:35;;;;;;;5.97;3.87;;;;;;;19.35;95.55;99507.16;5067940;28;20701;-58
2023/08/15 04:50:03;;;;;;;6.53;4.40;;;;;;;19.37;96.01;99484.44;5067723;28;20201;-58
2023/08/15 04:52:30;;;;;;;9.83;4.23;;;;;;;19.36;96.60;99462.09;5067040;28;20262;-59
2023/08/15 04:54:57;;;;;;;5.87;4.03;;;;;;;19.37;96.40;99477.50;5067823;28;20199;-59
2023/08/15 04:57:23;;;;;;;6.30;4.23;;;;;;;19.38;97.22;99471.34;5067926;28;20233;-58
2023/08/15 04:59:50;;;;;;;7.60;4.87;;;;;;;19.48;100.00;99471.19;5067153;28;20225;-60
2023/08/15 05:02:17;;;;;;;11.17;4.80;;;;;;;19.47;100.00;99482.53;5067908;28;20208;-59
2023/08/15 05:04:44;;;;;;;7.40;4.47;;;;;;;19.52;100.00;99476.88;5067836;28;20245;-59
2023/08/15 05:07:12;;;;;;;8.97;5.10;;;;;;;19.54;100.00;99480.13;5067169;28;20664;-59
2023/08/15 05:09:40;;;;;;;11.30;4.93;;;;;;;19.51;100.00;99478.66;5067053;28;20205;-58
2023/08/15 05:12:07;;;;;;;11.30;5.10;;;;;;;19.53;100.00;99479.31;5067550;28;20198;-59
2023/08/15 05:14:34;;;;;;;8.47;5.30;;;;;;;19.57;100.00;99490.97;5067168;28;20599;-58
2023/08/15 05:17:01;;;;;;;7.47;5.00;;;;;;;19.66;100.00;99492.69;5067072;28;20234;-58
2023/08/15 05:19:28;;;;;;;8.50;5.33;;;;;;;19.75;100.00;99493.50;5067358;28;20204;-58
2023/08/15 05:21:56;;;;;;;10.40;5.60;;;;;;;19.82;100.00;99499.66;5067196;28;20241;-58
2023/08/15 05:24:25;;;;;;;10.23;5.27;;;;;;;19.84;100.00;99504.72;5066517;28;20201;-57
2023/08/15 05:26:52;;;;;;;7.37;5.23;;;;;;;19.84;100.00;99497.72;5067468;28;20251;-58
2023/08/15 05:29:19;;;;;;;9.13;5.00;;;;;;;19.86;100.00;99500.16;5067299;28;20204;-57
2023/08/15 05:31:46;;;;;;;6.87;4.97;;;;;;;19.87;100.00;99501.78;5066770;28;20209;-57
2023/08/15 05:34:12;;;;;;;8.50;5.53;;;;;;;19.89;100.00;99499.81;5067614;28;20196;-57
2023/08/15 05:36:39;;;;;;;10.07;5.27;;;;;;;19.87;100.00;99515.56;5067188;28;20208;-58
2023/08/15 05:39:07;;;;;;;7.60;4.63;;;;;;;19.91;100.00;99508.28;5066717;28;20203;-57
2023/08/15 05:41:35;;;;;;;8.00;5.00;;;;;;;19.96;100.00;99507.81;5066738;28;20746;-57
2023/08/15 05:44:02;;;;;;;7.60;4.70;;;;;;;19.98;100.00;99503.25;5067523;28;20204;-57
2023/08/15 05:46:29;;;;;;;6.57;4.77;;;;;;;20.04;100.00;99500.84;5067016;28;20607;-57
2023/08/15 05:48:56;;;;;;;7.53;4.93;;;;;;;20.04;100.00;99503.44;5066836;28;20577;-57
2023/08/15 05:51:23;;;;;;;8.20;4.90;;;;;;;20.05;100.00;99494.66;5067233;28;20674;-59
2023/08/15 05:53:50;;;;;;;9.87;5.07;;;;;;;20.07;100.00;99497.91;5067620;28;20225;-58
2023/08/15 05:56:16;;;;;;;7.20;5.27;;;;;;;20.07;100.00;99481.50;5067616;28;20209;-58
2023/08/15 05:58:45;;;;;;;10.37;5.63;;;;;;;20.07;100.00;99495.31;5070154;28;20246;-58
2023/08/15 06:01:11;;;;;;;8.83;5.17;;;;;;;20.07;100.00;99507.47;5071088;28;20204;-58
2023/08/15 06:03:38;;;;;;;7.60;5.30;;;;;;;20.08;100.00;99503.91;5070662;28;20654;-58
2023/08/15 06:06:06;;;;;;;8.77;5.33;;;;;;;20.04;100.00;99513.81;5070410;28;20201;-59
2023/08/15 06:08:33;;;;;;;6.90;4.70;;;;;;;20.02;100.00;99525.31;5070730;28;20198;-58
2023/08/15 06:11:00;;;;;;;8.20;5.20;;;;;;;20.01;100.00;99516.72;5070656;28;20206;-58
2023/08/15 06:13:26;;;;;;;9.53;5.23;;;;;;;20.02;100.00;99517.53;5071098;28;20206;-59
2023/08/15 06:15:55;;;;;;;8.00;5.30;;;;;;;20.00;100.00;99516.88;5070884;28;20205;-58
2023/08/15 06:18:21;;;;;;;8.40;4.90;;;;;;;19.99;100.00;99507.47;5070455;28;20233;-58
2023/08/15 06:20:49;;;;;;;15.57;8.40;;;;;;;19.99;100.00;99510.88;5070589;28;20239;-58
2023/08/15 06:23:16;;;;;;;8.63;5.50;;;;;;;20.04;100.00;99529.38;5070454;28;20200;-58
2023/08/15 06:25:42;;;;;;;7.90;5.23;;;;;;;20.07;100.00;99529.06;5070257;28;20207;-58
2023/08/15 06:28:10;;;;;;;10.17;5.40;;;;;;;20.17;100.00;99530.69;5070327;28;20222;-59
2023/08/15 06:30:38;;;;;;;7.80;5.27;;;;;;;20.21;100.00;99527.59;5070389;28;20208;-58
2023/08/15 06:33:06;;;;;;;7.97;5.57;;;;;;;20.25;100.00;99531.50;5070211;28;20196;-58
2023/08/15 06:35:33;;;;;;;8.20;5.83;;;;;;;20.31;100.00;99535.25;5070273;28;20199;-58
2023/08/15 06:38:00;;;;;;;9.37;5.50;;;;;;;20.39;100.00;99531.81;5069998;28;20234;-58
2023/08/15 06:40:26;;;;;;;6.73;5.10;;;;;;;20.41;100.00;99514.28;5070064;28;20206;-58
2023/08/15 06:42:53;;;;;;;8.93;5.73;;;;;;;20.46;100.00;99528.41;5070006;28;20234;-58
2023/08/15 06:45:20;;;;;;;9.57;5.50;;;;;;;20.49;100.00;99528.06;5068677;28;20198;-58
2023/08/15 06:47:47;;;;;;;10.53;5.57;;;;;;;20.51;100.00;99535.72;5068410;28;20415;-59
2023/08/15 06:50:15;;;;;;;8.87;5.67;;;;;;;20.57;100.00;99533.31;5069720;28;20587;-57
2023/08/15 06:52:42;;;;;;;26.73;13.63;;;;;;;20.58;100.00;99537.50;5070231;28;20204;-57
2023/08/15 06:55:09;;;;;;;17.50;9.73;;;;;;;20.62;100.00;99538.00;5069769;28;20686;-58
2023/08/15 06:57:36;;;;;;;9.10;5.67;;;;;;;20.70;100.00;99521.59;5069815;28;20224;-58
2023/08/15 07:00:06;;;;;;;7.87;5.53;;;;;;;20.78;100.00;99527.56;5069796;28;20211;-57
2023/08/15 07:02:33;;;;;;;8.63;5.50;;;;;;;20.85;100.00;99524.31;5069982;28;20209;-58
2023/08/15 07:05:00;;;;;;;10.83;5.87;;;;;;;20.91;100.00;99529.66;5069467;28;20199;-58
2023/08/15 07:07:28;;;;;;;8.37;5.93;;;;;;;20.94;100.00;99537.13;5069214;28;20216;-59
2023/08/15 07:09:55;;;;;;;8.53;5.57;;;;;;;20.98;100.00;99528.00;5069670;28;20475;-57
2023/08/15 07:12:22;;;;;;;7.57;5.00;;;;;;;21.02;100.00;99526.69;5069534;28;20565;-59
2023/08/15 07:14:48;;;;;;;8.30;5.40;;;;;;;21.09;100.00;99519.06;5069461;28;20206;-59
2023/08/15 07:17:15;;;;;;;8.50;5.50;;;;;;;21.16;100.00;99519.19;5069428;28;20214;-58
2023/08/15 07:19:42;;;;;;;9.67;5.50;;;;;;;21.22;100.00;99510.72;5069241;28;20198;-58
2023/08/15 07:22:09;;;;;;;8.77;5.53;;;;;;;21.31;100.00;99517.50;5069139;28;20210;-59
2023/08/15 07:24:37;;;;;;;7.23;5.27;;;;;;;21.45;100.00;99519.41;5069582;28;20209;-58
2023/08/15 07:27:04;;;;;;;10.33;5.40;;;;;;;21.61;100.00;99522.88;5069149;28;20292;-58
2023/08/15 07:29:31;;;;;;;8.60;5.63;;;;;;;21.86;100.00;99516.56;5069163;28;20222;-59
2023/08/15 07:31:58;;;;;;;8.07;5.33;;;;;;;22.09;100.00;99515.75;5069196;28;20203;-58
2023/08/15 07:34:24;;;;;;;10.82;6.03;;;;;;;22.30;100.00;99508.13;5069093;28;20205;-57
2023/08/15 07:36:51;;;;;;;18.08;9.10;;;;;;;22.47;100.00;99514.00;5069191;28;20202;-58
2023/08/15 07:39:18;;;;;;;8.05;5.45;;;;;;;22.65;100.00;99503.22;5069079;28;20237;-58
2023/08/15 07:41:46;;;;;;;8.68;4.88;;;;;;;22.70;100.00;99498.28;5069153;28;20210;-58
2023/08/15 07:44:13;;;;;;;8.05;4.63;;;;;;;22.85;100.00;99503.50;5068996;28;20203;-58
2023/08/15 07:46:40;;;;;;;6.88;5.10;;;;;;;23.09;100.00;99499.84;5068905;28;20648;-58
2023/08/15 07:49:07;;;;;;;7.03;4.68;;;;;;;23.50;100.00;99504.53;5069045;28;20199;-58
2023/08/15 07:51:34;;;;;;;6.80;5.28;;;;;;;23.91;100.00;99501.34;5069053;28;20606;-58
2023/08/15 07:54:01;;;;;;;15.88;4.30;;;;;;;24.39;100.00;99499.75;5068745;28;20209;-58
2023/08/15 07:56:29;;;;;;;6.18;4.35;;;;;;;24.82;100.00;99498.84;5068724;28;20779;-58
2023/08/15 07:58:57;;;;;;;6.57;4.32;;;;;;;25.02;92.52;99494.50;5068313;28;20439;-58
2023/08/15 08:01:24;;;;;;;5.97;4.40;;;;;;;25.16;89.49;99505.03;5068555;28;20203;-58
2023/08/15 08:03:50;;;;;;;9.15;4.50;;;;;;;25.26;87.41;99508.13;5068386;28;20204;-58
2023/08/15 08:06:18;;;;;;;5.68;4.18;;;;;;;25.40;88.00;99501.94;5068617;28;20213;-59
2023/08/15 08:08:45;;;;;;;5.70;4.25;;;;;;;25.75;84.64;99510.47;5068247;28;20749;-58
2023/08/15 08:11:12;;;;;;;6.75;4.53;;;;;;;26.04;84.92;99505.09;5068188;28;20199;-58
2023/08/15 08:13:38;;;;;;;6.13;4.47;;;;;;;26.22;83.75;99514.97;5068354;28;20229;-58
2023/08/15 08:16:07;;;;;;;6.28;4.35;;;;;;;26.38;82.76;99499.66;5068182;28;20695;-58
2023/08/15 08:18:33;;;;;;;5.25;4.28;;;;;;;26.50;81.20;99502.47;5068356;28;20230;-58
2023/08/15 08:21:02;;;;;;;7.03;4.60;;;;;;;26.49;79.79;99500.81;5068434;28;20565;-59
2023/08/15 08:23:29;;;;;;;7.80;4.88;;;;;;;26.70;85.39;99497.19;5068032;28;20220;-58
2023/08/15 08:25:56;;;;;;;6.65;4.85;;;;;;;26.96;80.61;99500.75;5068322;28;20207;-58
2023/08/15 08:28:24;;;;;;;5.20;4.28;;;;;;;27.39;82.28;99500.19;5068714;28;20198;-59
2023/08/15 08:30:51;;;;;;;6.75;4.78;;;;;;;27.52;72.68;99502.75;5068134;28;20195;-59
2023/08/15 08:33:19;;;;;;;8.00;4.53;;;;;;;27.71;74.36;99499.19;5068394;28;20206;-59
2023/08/15 08:35:46;;;;;;;5.80;4.30;;;;;;;27.84;70.83;99498.31;5067873;28;20210;-59
2023/08/15 08:38:13;;;;;;;7.97;4.43;;;;;;;27.96;74.01;99501.06;5067980;28;20227;-59
2023/08/15 08:40:41;;;;;;;8.25;4.78;;;;;;;27.94;69.30;99503.91;5067958;28;20344;-59
2023/08/15 08:43:09;;;;;;;5.72;4.10;;;;;;;27.91;68.40;99508.78;5067792;28;20231;-59
2023/08/15 08:45:40;;;;;;;9.05;4.65;;;;;;;27.73;67.98;99507.66;5067794;28;20198;-59
2023/08/15 08:48:10;;;;;;;5.05;4.13;;;;;;;27.82;73.06;99494.31;5067825;28;20198;-59
2023/08/15 08:50:40;;;;;;;8.90;4.25;;;;;;;28.21;80.25;99498.44;5067861;28;20199;-59
2023/08/15 08:53:06;;;;;;;6.07;4.40;;;;;;;28.24;64.88;99500.63;5067669;28;20202;-59
2023/08/15 08:55:34;;;;;;;5.60;4.20;;;;;;;28.20;69.50;99502.09;5067749;28;20202;-59
2023/08/15 08:58:03;;;;;;;5.45;4.20;;;;;;;28.16;63.59;99493.81;5067511;28;20738;-59
2023/08/15 09:00:32;;;;;;;5.30;4.07;;;;;;;28.40;70.37;99496.66;5067693;28;20194;-59
2023/08/15 09:02:59;;;;;;;5.45;4.43;;;;;;;28.27;66.51;99504.66;5067733;28;20248;-59
2023/08/15 09:05:27;;;;;;;9.32;4.40;;;;;;;28.38;67.98;99503.94;5068058;28;20195;-59
2023/08/15 09:07:55;;;;;;;5.30;4.20;;;;;;;28.50;69.96;99504.84;5067602;28;20206;-59
2023/08/15 09:10:23;;;;;;;6.55;4.50;;;;;;;28.51;65.41;99503.03;5067874;28;20210;-59
2023/08/15 09:12:50;;;;;;;5.85;4.13;;;;;;;28.53;63.65;99501.78;5067628;28;20563;-59
2023/08/15 09:15:17;;;;;;;6.97;4.35;;;;;;;28.69;63.97;99499.63;5067127;28;20218;-59
2023/08/15 09:17:44;;;;;;;10.38;4.07;;;;;;;28.72;61.66;99499.19;5065763;28;20207;-60
2023/08/15 09:20:13;;;;;;;6.32;4.63;;;;;;;28.75;62.13;99494.28;5066382;28;20292;-59
2023/08/15 09:22:44;;;;;;;10.40;4.72;;;;;;;28.98;68.23;99495.47;5067452;28;20210;-59
2023/08/15 09:25:14;;;;;;;5.65;4.20;;;;;;;29.32;66.21;99491.38;5067378;28;20216;-59
2023/08/15 09:27:42;;;;;;;5.63;4.25;;;;;;;29.55;62.22;99482.75;5067654;28;20432;-59
2023/08/15 09:30:10;;;;;;;5.57;4.07;;;;;;;29.66;59.27;99478.59;5067481;28;20637;-59
2023/08/15 09:32:39;;;;;;;6.68;4.35;;;;;;;29.96;64.24;99475.88;5070728;28;20498;-59
2023/08/15 09:35:08;;;;;;;5.47;4.30;;;;;;;30.12;59.88;99477.03;5071293;28;20199;-59
2023/08/15 09:37:35;;;;;;;5.57;4.28;;;;;;;30.33;57.12;99478.31;5071121;28;20205;-60
2023/08/15 09:40:04;;;;;;;5.85;4.28;;;;;;;30.09;55.58;99472.22;5071212;28;20230;-59
2023/08/15 09:42:32;;;;;;;5.47;4.38;;;;;;;30.19;54.13;99459.25;5071305;28;20256;-59
2023/08/15 09:44:59;;;;;;;5.63;4.57;;;;;;;30.35;58.46;99461.25;5071312;28;20198;-59
2023/08/15 09:47:27;;;;;;;8.13;4.45;;;;;;;30.57;59.48;99457.97;5071187;28;20195;-59
2023/08/15 09:49:54;;;;;;;4.38;3.97;;;;;;;30.65;53.95;99463.69;5071102;28;20203;-60
2023/08/15 09:52:21;;;;;;;4.30;3.80;;;;;;;30.82;56.30;99455.88;5071071;28;20686;-59
2023/08/15 09:54:48;;;;;;;5.43;4.15;;;;;;;30.94;54.31;99447.13;5070733;28;20202;-59
2023/08/15 09:57:16;;;;;;;5.15;4.15;;;;;;;30.95;52.61;99454.84;5071000;28;20576;-59
2023/08/15 09:59:44;;;;;;;5.70;4.35;;;;;;;30.91;52.39;99453.69;5071105;28;20690;-59
2023/08/15 10:02:21;;;;;;;5.60;4.18;;;;;;;30.98;53.87;99442.97;5071036;28;20202;-59
2023/08/15 10:04:57;;;;;;;5.10;4.03;;;;;;;31.05;57.38;99435.72;5070735;28;20202;-59
2023/08/15 10:07:28;;;;;;;5.72;4.13;;;;;;;31.24;56.06;99442.41;5070572;28;20848;-59
2023/08/15 10:09:57;;;;;;;5.95;4.22;;;;;;;31.20;51.96;99441.28;5070578;28;20313;-59
2023/08/15 10:12:25;;;;;;;6.05;4.25;;;;;;;31.38;54.45;99431.56;5071121;28;20252;-59
2023/08/15 10:14:56;;;;;;;6.15;4.35;;;;;;;31.43;49.75;99432.47;5070558;28;20757;-60
2023/08/15 10:17:23;;;;;;;6.00;4.50;;;;;;;31.44;52.08;99420.03;5070566;28;20612;-59
2023/08/15 10:19:50;;;;;;;5.38;3.88;;;;;;;31.66;49.30;99418.28;5070504;28;20241;-59
2023/08/15 10:22:19;;;;;;;6.00;4.40;;;;;;;31.70;47.17;99419.41;5070442;28;20202;-60
2023/08/15 10:24:46;;;;;;;5.57;4.22;;;;;;;31.91;56.07;99412.63;5070541;28;20207;-60
2023/08/15 10:27:14;;;;;;;8.40;4.38;;;;;;;31.88;48.99;99417.53;5070446;28;20211;-60
2023/08/15 10:29:57;;;;;;;7.97;4.60;;;;;;;31.93;50.57;99418.44;5070091;28;20242;-60
2023/08/15 10:32:25;;;;;;;6.50;4.43;;;;;;;31.79;48.28;99414.50;5070414;28;20574;-60
2023/08/15 10:34:54;;;;;;;4.82;3.90;;;;;;;31.77;48.85;99409.47;5070583;28;20272;-60
2023/08/15 10:37:30;;;;;;;4.65;3.88;;;;;;;31.94;46.98;99419.25;5070285;28;20280;-60
2023/08/15 10:40:09;;;;;;;7.05;4.30;;;;;;;32.20;51.97;99408.00;5070365;28;20307;-59
2023/08/15 10:43:09;;;;;;;4.97;3.85;;;;;;;32.19;48.84;99414.31;5069391;28;20206;-60
2023/08/15 10:45:40;;;;;;;6.05;3.92;;;;;;;32.09;44.38;99410.75;5070269;28;20207;-60
2023/08/15 10:48:07;;;;;;;4.53;3.72;;;;;;;32.13;43.76;99403.91;5070209;28;20206;-60
2023/08/15 10:50:35;;;;;;;5.57;4.25;;;;;;;32.01;47.67;99407.47;5070001;28;20209;-60
2023/08/15 10:53:03;;;;;;;5.05;4.07;;;;;;;31.96;46.63;99406.59;5070089;28;20211;-60
2023/08/15 10:55:34;;;;;;;5.53;4.13;;;;;;;31.90;46.85;99404.88;5069799;28;20203;-60
2023/08/15 10:58:05;;;;;;;5.10;4.10;;;;;;;32.03;46.84;99401.94;5069870;28;20284;-60
2023/08/15 11:00:32;;;;;;;5.18;4.13;;;;;;;32.24;48.11;99403.81;5069878;28;20240;-60
2023/08/15 11:03:02;;;;;;;5.05;4.00;;;;;;;32.15;47.75;99405.28;5070005;28;20668;-60
2023/08/15 11:05:29;;;;;;;5.85;3.85;;;;;;;31.97;47.77;99405.53;5069619;28;20199;-60
2023/08/15 11:08:10;;;;;;;6.05;4.05;;;;;;;32.03;45.17;99409.88;5070016;28;20229;-60
2023/08/15 11:10:37;;;;;;;4.70;3.88;;;;;;;32.12;46.82;99408.41;5069683;28;20217;-60
2023/08/15 11:13:04;;;;;;;5.30;4.07;;;;;;;31.94;45.06;99403.38;5069500;28;20219;-60
2023/08/15 11:15:32;;;;;;;5.15;4.22;;;;;;;31.96;45.98;99417.16;5069411;28;20206;-60
2023/08/15 11:18:01;;;;;;;5.70;4.15;;;;;;;32.07;48.24;99408.34;5069726;28;20199;-60
2023/08/15 11:20:29;;;;;;;6.90;4.32;;;;;;;31.74;44.69;99404.66;5069275;28;20231;-60
2023/08/15 11:22:57;;;;;;;4.70;3.97;;;;;;;31.69;50.67;99401.94;5069271;28;20271;-60
2023/08/15 11:25:23;;;;;;;4.95;4.18;;;;;;;31.58;48.52;99400.19;5069225;28;20211;-60
2023/08/15 11:27:51;;;;;;;6.72;4.18;;;;;;;31.73;49.53;99394.31;5069313;28;20226;-60
2023/08/15 11:30:18;;;;;;;5.88;4.40;;;;;;;31.80;49.51;99390.47;5069046;28;20605;-60
2023/08/15 11:32:46;;;;;;;6.85;4.65;;;;;;;31.62;49.02;99400.50;5069339;28;20206;-60
2023/08/15 11:35:14;;;;;;;7.15;4.80;;;;;;;31.63;47.79;99392.34;5069179;28;20209;-60